createdAt,value
2017-10-13T00:01:17.991Z,4.33
2017-10-13T00:03:46.323Z,3.87
2017-10-13T00:06:14.680Z,4.43
2017-10-13T00:08:43.765Z,5.30
2017-10-13T00:11:12.087Z,4.40
2017-10-13T00:13:40.412Z,5.50
2017-10-13T00:16:08.737Z,4.57
2017-10-13T00:18:37.922Z,4.90
2017-10-13T00:21:06.255Z,4.60
2017-10-13T00:23:34.585Z,5.80
2017-10-13T00:26:02.922Z,5.17
2017-10-13T00:28:31.369Z,5.27
2017-10-13T00:31:00.469Z,5.30
2017-10-13T00:33:29.571Z,5.23
2017-10-13T00:35:58.667Z,4.60
2017-10-13T00:38:27.919Z,5.60
2017-10-13T00:40:56.288Z,5.60
2017-10-13T00:43:24.618Z,5.30
2017-10-13T00:45:52.999Z,5.83
2017-10-13T00:48:21.322Z,4.90
2017-10-13T00:50:49.649Z,5.40
2017-10-13T00:53:17.969Z,6.40
2017-10-13T00:55:46.309Z,4.63
2017-10-13T00:58:14.624Z,6.47
2017-10-13T01:00:43.716Z,5.70
2017-10-13T01:03:12.816Z,5.50
2017-10-13T01:05:41.910Z,5.67
2017-10-13T01:08:10.984Z,6.97
2017-10-13T01:10:39.311Z,6.30
2017-10-13T01:13:07.619Z,5.07
2017-10-13T01:15:35.941Z,5.70
2017-10-13T01:18:04.248Z,5.20
2017-10-13T01:20:33.339Z,5.90
2017-10-13T01:23:02.430Z,5.43
2017-10-13T01:25:30.754Z,5.93
2017-10-13T01:27:59.061Z,5.23
2017-10-13T01:30:27.388Z,5.50
2017-10-13T01:32:56.472Z,6.00
2017-10-13T01:35:24.808Z,5.90
2017-10-13T01:37:53.956Z,6.17
2017-10-13T01:40:23.152Z,4.80
2017-10-13T01:42:51.503Z,5.37
2017-10-13T01:45:19.983Z,5.63
2017-10-13T01:47:48.294Z,5.80
2017-10-13T01:50:16.623Z,6.40
2017-10-13T01:52:45.019Z,5.33
2017-10-13T01:55:13.339Z,5.30
2017-10-13T01:57:41.838Z,6.93
2017-10-13T02:00:10.169Z,5.50
2017-10-13T02:02:38.553Z,6.30
2017-10-13T02:05:06.895Z,6.10
2017-10-13T02:07:35.978Z,6.70
2017-10-13T02:10:04.309Z,6.00
2017-10-13T02:12:32.622Z,6.87
2017-10-13T02:15:00.949Z,6.07
2017-10-13T02:17:30.014Z,6.90
2017-10-13T02:19:58.360Z,6.27
2017-10-13T02:22:26.670Z,7.10
2017-10-13T02:24:54.997Z,7.07
2017-10-13T02:27:24.092Z,7.27
2017-10-13T02:29:53.258Z,6.90
2017-10-13T02:32:21.590Z,6.57
2017-10-13T02:34:49.907Z,6.93
2017-10-13T02:37:18.239Z,6.40
2017-10-13T02:39:46.568Z,7.17
2017-10-13T02:42:14.884Z,7.80
2017-10-13T02:44:43.516Z,7.83
2017-10-13T02:47:11.841Z,7.17
2017-10-13T02:49:40.158Z,7.70
2017-10-13T02:52:09.248Z,7.13
2017-10-13T02:54:38.424Z,6.70
2017-10-13T02:57:06.752Z,7.00
2017-10-13T02:59:35.059Z,7.40
2017-10-13T03:02:03.396Z,6.53
2017-10-13T03:04:32.487Z,6.70
2017-10-13T03:07:01.597Z,7.37
2017-10-13T03:09:30.673Z,6.90
2017-10-13T03:11:58.996Z,6.90
2017-10-13T03:14:27.308Z,8.00
2017-10-13T03:16:55.628Z,7.60
2017-10-13T03:19:24.711Z,7.23
2017-10-13T03:21:53.039Z,7.60
2017-10-13T03:24:21.339Z,8.57
2017-10-13T03:26:49.664Z,8.00
2017-10-13T03:29:17.992Z,8.40
2017-10-13T03:31:46.695Z,8.07
2017-10-13T03:34:15.864Z,7.40
2017-10-13T03:36:44.945Z,6.73
2017-10-13T03:39:13.289Z,6.67
2017-10-13T03:41:41.612Z,8.00
2017-10-13T03:44:10.687Z,8.10
2017-10-13T03:46:39.015Z,8.30
2017-10-13T03:49:07.338Z,6.90
2017-10-13T03:51:35.665Z,8.40
2017-10-13T03:54:04.778Z,8.70
2017-10-13T03:56:33.088Z,8.30
2017-10-13T03:59:01.448Z,8.27
2017-10-13T04:01:29.760Z,8.80
2017-10-13T04:03:58.082Z,7.77
2017-10-13T04:06:27.332Z,7.10
2017-10-13T04:08:55.636Z,7.73
2017-10-13T04:11:23.972Z,8.50
2017-10-13T04:13:52.274Z,8.50
2017-10-13T04:16:20.651Z,7.50
2017-10-13T04:18:49.000Z,9.47
2017-10-13T04:21:18.098Z,8.47
2017-10-13T04:23:47.207Z,7.60
2017-10-13T04:26:16.318Z,8.07
2017-10-13T04:28:45.398Z,7.97
2017-10-13T04:31:14.487Z,8.07
2017-10-13T04:33:42.805Z,9.27
2017-10-13T04:36:11.192Z,7.87
2017-10-13T04:38:39.509Z,9.00
2017-10-13T04:41:07.828Z,8.20
2017-10-13T04:43:36.914Z,8.50
2017-10-13T04:46:06.002Z,7.60
2017-10-13T04:48:34.310Z,8.40
2017-10-13T04:51:03.399Z,8.83
2017-10-13T04:53:32.503Z,7.73
2017-10-13T04:56:01.603Z,8.60
2017-10-13T04:58:30.671Z,8.40
2017-10-13T05:00:58.998Z,8.27
2017-10-13T05:03:27.330Z,8.80
2017-10-13T05:05:55.655Z,8.30
2017-10-13T05:08:24.751Z,9.00
2017-10-13T05:10:53.841Z,10.90
2017-10-13T05:13:22.200Z,9.50
2017-10-13T05:15:50.518Z,9.57
2017-10-13T05:18:19.606Z,9.50
2017-10-13T05:20:48.666Z,9.13
2017-10-13T05:23:17.010Z,8.17
2017-10-13T05:25:45.319Z,8.10
2017-10-13T05:28:13.632Z,9.03
2017-10-13T05:30:41.951Z,9.00
2017-10-13T05:33:10.280Z,7.80
2017-10-13T05:35:38.576Z,8.50
2017-10-13T05:38:07.662Z,8.80
2017-10-13T05:40:35.979Z,8.63
2017-10-13T05:43:05.048Z,9.07
2017-10-13T05:45:33.368Z,9.20
2017-10-13T05:48:02.768Z,9.70
2017-10-13T05:50:31.921Z,8.90
2017-10-13T05:53:00.239Z,9.70
2017-10-13T05:55:28.552Z,9.13
2017-10-13T05:57:56.866Z,8.30
2017-10-13T06:00:25.168Z,8.53
2017-10-13T06:02:53.470Z,9.10
2017-10-13T06:05:22.656Z,10.00
2017-10-13T06:07:51.023Z,11.40
2017-10-13T06:10:19.318Z,12.07
2017-10-13T06:12:47.650Z,10.83
2017-10-13T06:15:15.979Z,12.83
2017-10-13T06:17:44.307Z,11.90
2017-10-13T06:20:12.665Z,12.47
2017-10-13T06:22:41.762Z,13.57
2017-10-13T06:25:10.858Z,14.73
2017-10-13T06:27:40.710Z,16.27
2017-10-13T06:30:09.036Z,15.80
2017-10-13T06:32:37.352Z,16.87
2017-10-13T06:35:06.417Z,20.23
2017-10-13T06:37:34.718Z,20.77
2017-10-13T06:40:03.856Z,19.60
2017-10-13T06:42:32.160Z,20.57
2017-10-13T06:45:00.476Z,21.40
2017-10-13T06:47:28.800Z,21.80
2017-10-13T06:49:57.117Z,21.27
2017-10-13T06:52:25.438Z,22.97
2017-10-13T06:54:54.523Z,24.67
2017-10-13T06:57:22.868Z,22.27
2017-10-13T06:59:51.171Z,23.60
2017-10-13T07:02:19.476Z,54.80
2017-10-13T07:04:48.543Z,24.90
2017-10-13T07:07:16.840Z,37.33
2017-10-13T07:09:45.156Z,33.93
2017-10-13T07:12:13.937Z,25.60
2017-10-13T07:14:42.270Z,29.63
2017-10-13T07:17:10.603Z,28.87
2017-10-13T07:19:39.680Z,23.60
2017-10-13T07:22:08.010Z,27.73
2017-10-13T07:24:36.312Z,24.17
2017-10-13T07:27:04.671Z,21.10
2017-10-13T07:29:32.996Z,22.00
2017-10-13T07:32:01.336Z,20.67
2017-10-13T07:34:29.636Z,21.37
2017-10-13T07:36:58.035Z,21.37
2017-10-13T07:39:26.351Z,20.87
2017-10-13T07:41:55.501Z,23.00
2017-10-13T07:44:23.807Z,20.47
2017-10-13T07:46:52.131Z,20.20
2017-10-13T07:49:20.617Z,20.30
2017-10-13T07:51:48.917Z,20.53
2017-10-13T07:54:17.293Z,20.00
2017-10-13T07:56:45.595Z,21.03
2017-10-13T07:59:13.939Z,20.30
2017-10-13T08:01:43.035Z,21.43
2017-10-13T08:04:12.113Z,22.40
2017-10-13T08:06:40.425Z,23.47
2017-10-13T08:09:08.733Z,22.80
2017-10-13T08:11:37.050Z,24.47
2017-10-13T08:14:05.406Z,23.97
2017-10-13T08:16:33.722Z,24.40
2017-10-13T08:19:02.043Z,25.90
2017-10-13T08:21:30.374Z,25.60
2017-10-13T08:23:58.743Z,26.37
2017-10-13T08:26:27.063Z,26.10
2017-10-13T08:28:56.126Z,26.30
2017-10-13T08:31:24.446Z,26.37
2017-10-13T08:33:53.519Z,27.87
2017-10-13T08:36:21.817Z,24.63
2017-10-13T08:38:50.162Z,24.93
2017-10-13T08:41:18.492Z,25.10
2017-10-13T08:43:47.556Z,25.93
2017-10-13T08:46:15.864Z,26.47
2017-10-13T08:48:44.944Z,26.83
2017-10-13T08:51:13.309Z,26.40
2017-10-13T08:53:41.844Z,28.73
2017-10-13T08:56:10.913Z,27.90
2017-10-13T08:58:39.237Z,27.60
2017-10-13T09:01:07.556Z,27.27
2017-10-13T09:03:35.851Z,29.17
2017-10-13T09:06:04.176Z,26.97
2017-10-13T09:08:32.488Z,26.27
2017-10-13T09:11:00.798Z,26.57
2017-10-13T09:13:29.116Z,26.60
2017-10-13T09:15:58.205Z,24.90
2017-10-13T09:18:27.307Z,27.33
2017-10-13T09:20:56.384Z,26.20
2017-10-13T09:23:24.699Z,26.60
2017-10-13T09:25:53.853Z,25.77
2017-10-13T09:28:22.171Z,24.73
2017-10-13T09:30:51.242Z,23.80
2017-10-13T09:33:19.602Z,24.40
2017-10-13T09:35:47.954Z,24.43
2017-10-13T09:38:16.254Z,21.80
2017-10-13T09:40:44.578Z,22.10
2017-10-13T09:43:12.880Z,19.70
2017-10-13T09:45:41.967Z,19.23
2017-10-13T09:48:11.057Z,20.70
2017-10-13T09:50:39.379Z,18.73
2017-10-13T09:53:07.874Z,17.80
2017-10-13T09:55:36.179Z,18.17
2017-10-13T09:58:04.489Z,15.90
2017-10-13T10:00:32.804Z,16.10
2017-10-13T10:03:01.115Z,15.80
2017-10-13T10:05:29.431Z,14.63
2017-10-13T10:07:57.879Z,14.00
2017-10-13T10:10:26.195Z,14.23
2017-10-13T10:12:54.517Z,13.43
2017-10-13T10:15:22.826Z,13.40
2017-10-13T10:17:51.129Z,12.40
2017-10-13T10:20:19.634Z,12.67
2017-10-13T10:22:47.947Z,13.10
2017-10-13T10:25:16.249Z,11.80
2017-10-13T10:27:44.585Z,10.80
2017-10-13T10:30:12.946Z,10.60
2017-10-13T10:32:41.242Z,9.07
2017-10-13T10:35:09.561Z,7.47
2017-10-13T10:37:37.883Z,5.10
2017-10-13T10:40:06.194Z,4.10
2017-10-13T10:42:34.512Z,4.00
2017-10-13T10:45:02.806Z,3.40
2017-10-13T10:47:31.101Z,3.50
2017-10-13T10:49:59.397Z,2.90
2017-10-13T10:52:27.694Z,3.43
2017-10-13T10:54:56.000Z,3.57
2017-10-13T10:57:25.076Z,3.57
2017-10-13T10:59:53.468Z,3.57
2017-10-13T11:02:21.813Z,3.27
2017-10-13T11:04:50.109Z,3.70
2017-10-13T11:07:18.407Z,4.13
2017-10-13T11:09:46.726Z,3.67
2017-10-13T11:12:15.040Z,4.20
2017-10-13T11:14:43.424Z,3.27
2017-10-13T11:17:11.733Z,3.67
2017-10-13T11:19:40.031Z,4.10
2017-10-13T11:22:09.106Z,3.80
2017-10-13T11:24:37.460Z,4.57
2017-10-13T11:27:05.802Z,4.07
2017-10-13T11:29:34.873Z,3.40
2017-10-13T11:32:03.202Z,4.27
2017-10-13T11:34:31.520Z,4.07
2017-10-13T11:36:59.836Z,4.00
2017-10-13T11:39:28.893Z,3.80
2017-10-13T11:41:58.039Z,4.07
2017-10-13T11:44:27.117Z,3.80
2017-10-13T11:46:54.709Z,3.57
2017-10-13T11:49:23.827Z,3.70
2017-10-13T11:51:52.125Z,3.80
2017-10-13T11:54:20.439Z,4.03
2017-10-13T11:56:48.741Z,4.17
2017-10-13T11:59:17.817Z,4.57
2017-10-13T12:01:46.142Z,4.33
2017-10-13T12:04:14.482Z,3.77
2017-10-13T12:06:42.776Z,3.73
2017-10-13T12:09:11.068Z,4.40
2017-10-13T12:11:40.147Z,3.77
2017-10-13T12:14:08.444Z,4.10
2017-10-13T12:16:37.498Z,3.90
2017-10-13T12:19:05.836Z,3.50
2017-10-13T12:21:34.968Z,4.13
2017-10-13T12:24:03.312Z,3.60
2017-10-13T12:26:32.379Z,3.83
2017-10-13T12:29:00.699Z,3.90
2017-10-13T12:31:29.900Z,3.70
2017-10-13T12:33:58.965Z,4.13
2017-10-13T12:36:27.279Z,3.90
2017-10-13T12:38:56.363Z,4.57
2017-10-13T12:41:25.094Z,4.20
2017-10-13T12:43:53.399Z,4.63
2017-10-13T12:46:21.714Z,4.80
2017-10-13T12:48:50.024Z,5.03
2017-10-13T12:51:18.327Z,3.80
2017-10-13T12:53:46.645Z,4.20
2017-10-13T12:56:15.799Z,4.10
2017-10-13T12:58:44.130Z,3.73
2017-10-13T13:01:12.510Z,3.10
2017-10-13T13:03:41.596Z,3.40
2017-10-13T13:06:09.918Z,4.00
2017-10-13T13:08:39.036Z,3.57
2017-10-13T13:11:07.346Z,3.20
2017-10-13T13:13:35.806Z,3.17
2017-10-13T13:16:04.191Z,2.90
2017-10-13T13:18:32.553Z,3.23
2017-10-13T13:21:01.683Z,5.00
2017-10-13T13:23:30.002Z,4.40
2017-10-13T13:25:58.384Z,4.00
2017-10-13T13:28:26.692Z,4.10
2017-10-13T13:30:55.760Z,4.00
2017-10-13T13:33:24.080Z,3.70
2017-10-13T13:35:53.150Z,4.60
2017-10-13T13:38:21.464Z,5.20
2017-10-13T13:40:50.532Z,5.80
2017-10-13T13:43:19.600Z,5.77
2017-10-13T13:45:47.907Z,7.40
2017-10-13T13:48:16.220Z,7.17
2017-10-13T13:50:45.340Z,6.47
2017-10-13T13:53:13.814Z,7.70
2017-10-13T13:55:42.124Z,7.70
2017-10-13T13:58:10.444Z,7.73
2017-10-13T14:00:38.740Z,7.30
2017-10-13T14:03:07.049Z,7.23
2017-10-13T14:05:35.381Z,7.67
2017-10-13T14:08:03.689Z,7.43
2017-10-13T14:10:32.776Z,8.67
2017-10-13T14:13:01.066Z,6.60
2017-10-13T14:15:30.141Z,7.90
2017-10-13T14:17:58.455Z,8.13
2017-10-13T14:20:27.541Z,7.57
2017-10-13T14:22:55.844Z,8.10
2017-10-13T14:25:24.947Z,7.73
2017-10-13T14:27:54.035Z,7.23
2017-10-13T14:30:23.097Z,6.50
2017-10-13T14:32:51.399Z,5.80
2017-10-13T14:35:19.708Z,5.80
2017-10-13T14:37:48.863Z,5.47
2017-10-13T14:40:17.179Z,5.30
2017-10-13T14:42:46.305Z,4.70
2017-10-13T14:45:14.598Z,4.80
2017-10-13T14:47:42.925Z,4.90
2017-10-13T14:50:11.241Z,5.67
2017-10-13T14:52:39.543Z,5.33
2017-10-13T14:55:07.848Z,5.90
2017-10-13T14:57:36.195Z,4.60
2017-10-13T15:00:04.512Z,4.90
2017-10-13T15:02:32.821Z,5.43
2017-10-13T15:05:01.960Z,5.70
2017-10-13T15:07:30.257Z,5.37
2017-10-13T15:09:58.557Z,4.83
2017-10-13T15:12:26.860Z,4.87
2017-10-13T15:14:55.162Z,4.70
2017-10-13T15:17:24.277Z,5.33
2017-10-13T15:19:52.573Z,4.93
2017-10-13T15:22:20.903Z,5.10
2017-10-13T15:24:55.567Z,4.47
2017-10-13T15:41:01.321Z,4.97
2017-10-13T15:43:35.167Z,4.80
2017-10-13T15:46:09.908Z,4.67
2017-10-13T15:48:38.321Z,5.37
2017-10-13T15:51:12.233Z,4.63
2017-10-13T15:53:40.549Z,4.80
2017-10-13T15:56:08.851Z,4.63
2017-10-13T15:58:37.913Z,5.20
2017-10-13T16:01:06.211Z,5.20
2017-10-13T16:03:34.544Z,5.23
2017-10-13T16:06:02.851Z,5.97
2017-10-13T16:08:31.163Z,5.33
2017-10-13T16:11:00.236Z,5.27
2017-10-13T16:13:28.543Z,5.37
2017-10-13T16:15:56.963Z,6.27
2017-10-13T16:18:25.285Z,6.57
2017-10-13T16:20:53.581Z,5.83
2017-10-13T16:23:21.889Z,6.20
2017-10-13T16:25:50.949Z,5.97
2017-10-13T16:28:19.267Z,5.30
2017-10-13T16:30:48.365Z,5.70
2017-10-13T16:33:17.437Z,5.30
2017-10-13T16:35:45.732Z,5.70
2017-10-13T16:38:14.036Z,5.40
2017-10-13T16:40:42.350Z,5.97
2017-10-13T16:43:10.661Z,6.07
2017-10-13T16:45:38.962Z,6.20
2017-10-13T16:48:08.035Z,6.37
2017-10-13T16:50:36.345Z,6.40
2017-10-13T16:53:05.513Z,6.30
2017-10-13T16:55:33.823Z,6.40
2017-10-13T16:58:02.903Z,6.50
2017-10-13T17:00:31.219Z,6.13
2017-10-13T17:02:59.522Z,6.40
2017-10-13T17:05:27.815Z,7.20
2017-10-13T17:07:56.116Z,6.47
2017-10-13T17:10:24.426Z,6.70
2017-10-13T17:12:53.496Z,6.60
2017-10-13T17:15:22.055Z,7.47
2017-10-13T17:17:50.353Z,6.53
2017-10-13T17:20:18.982Z,6.93
2017-10-13T17:22:48.045Z,7.60
2017-10-13T17:25:16.352Z,7.47
2017-10-13T17:27:44.672Z,8.00
2017-10-13T17:30:13.128Z,8.43
2017-10-13T17:32:42.340Z,8.10
2017-10-13T17:35:11.419Z,7.90
2017-10-13T17:37:39.733Z,7.70
2017-10-13T17:40:08.061Z,7.80
2017-10-13T17:42:36.371Z,7.33
2017-10-13T17:45:05.521Z,7.80
2017-10-13T17:47:33.824Z,7.57
2017-10-13T17:50:02.133Z,6.90
2017-10-13T17:52:31.218Z,6.90
2017-10-13T17:54:59.547Z,6.70
2017-10-13T17:57:27.862Z,6.87
2017-10-13T17:59:56.298Z,6.17
2017-10-13T18:02:25.373Z,5.90
2017-10-13T18:04:53.688Z,7.33
2017-10-13T18:07:22.000Z,6.63
2017-10-13T18:09:50.316Z,7.00
2017-10-13T18:12:19.412Z,5.80
2017-10-13T18:14:47.715Z,6.70
2017-10-13T18:17:16.893Z,5.93
2017-10-13T18:19:45.205Z,6.30
2017-10-13T18:22:13.514Z,5.37
2017-10-13T18:24:41.822Z,5.17
2017-10-13T18:27:10.120Z,6.00
2017-10-13T18:29:38.434Z,6.80
2017-10-13T18:32:06.736Z,6.57
2017-10-13T18:34:35.021Z,5.90
2017-10-13T18:37:03.320Z,6.10
2017-10-13T18:39:31.620Z,7.10
2017-10-13T18:41:59.957Z,7.23
2017-10-13T18:44:31.093Z,7.10
2017-10-13T18:46:59.388Z,7.63
2017-10-13T18:49:27.731Z,8.97
2017-10-13T18:51:56.854Z,8.20
2017-10-13T18:54:25.162Z,9.13
2017-10-13T18:56:53.515Z,9.10
2017-10-13T18:59:21.822Z,9.70
2017-10-13T19:01:50.166Z,9.37
2017-10-13T19:04:18.478Z,9.03
2017-10-13T19:06:46.784Z,9.10
2017-10-13T19:09:15.083Z,9.63
2017-10-13T19:11:43.410Z,9.80
2017-10-13T19:14:11.729Z,9.57
2017-10-13T19:16:40.050Z,11.00
2017-10-13T19:19:09.127Z,10.70
2017-10-13T19:21:38.212Z,10.70
2017-10-13T19:24:06.542Z,9.83
2017-10-13T19:26:34.852Z,9.87
2017-10-13T19:29:03.172Z,10.30
2017-10-13T19:31:32.269Z,9.70
2017-10-13T19:34:00.593Z,10.10
2017-10-13T19:36:28.912Z,9.77
2017-10-13T19:38:57.242Z,10.50
2017-10-13T19:41:25.552Z,10.03
2017-10-13T19:43:53.884Z,10.60
2017-10-13T19:46:22.971Z,11.50
2017-10-13T19:48:51.305Z,10.10
2017-10-13T19:51:19.719Z,11.23
2017-10-13T19:53:48.021Z,10.07
2017-10-13T19:56:16.337Z,10.33
2017-10-13T19:58:44.672Z,10.17
2017-10-13T20:01:12.986Z,9.20
2017-10-13T20:03:41.318Z,9.50
2017-10-13T20:06:09.623Z,9.90
2017-10-13T20:08:37.945Z,9.77
2017-10-13T20:11:06.281Z,9.73
2017-10-13T20:13:34.578Z,9.53
2017-10-13T20:16:03.652Z,9.90
2017-10-13T20:18:31.944Z,9.40
2017-10-13T20:21:00.288Z,9.13
2017-10-13T20:23:28.580Z,8.60
2017-10-13T20:25:56.874Z,6.43
2017-10-13T20:28:25.208Z,5.40
2017-10-13T20:30:53.509Z,5.03
2017-10-13T20:33:21.954Z,4.90
2017-10-13T20:35:51.066Z,4.30
2017-10-13T20:38:19.371Z,3.33
2017-10-13T20:40:47.670Z,3.93
2017-10-13T20:43:15.969Z,3.30
2017-10-13T20:45:44.268Z,3.90
2017-10-13T20:48:13.342Z,3.80
2017-10-13T20:50:41.650Z,3.97
2017-10-13T20:53:10.715Z,4.23
2017-10-13T20:55:39.012Z,3.43
2017-10-13T20:58:07.307Z,4.30
2017-10-13T21:00:35.604Z,4.27
2017-10-13T21:03:04.729Z,4.93
2017-10-13T21:05:33.186Z,4.70
2017-10-13T21:08:02.261Z,4.10
2017-10-13T21:10:30.587Z,4.27
2017-10-13T21:15:20.458Z,4.57
2017-10-13T21:17:48.778Z,5.20
2017-10-13T21:20:17.196Z,5.10
2017-10-13T21:22:45.503Z,4.90
2017-10-13T21:25:13.844Z,5.00
2017-10-13T21:27:42.140Z,6.40
2017-10-13T21:30:10.484Z,7.40
2017-10-13T21:32:38.849Z,6.40
2017-10-13T21:35:07.213Z,6.40
2017-10-13T21:37:35.543Z,7.33
2017-10-13T21:40:03.871Z,7.50
2017-10-13T21:42:32.208Z,8.00
2017-10-13T21:45:00.536Z,8.10
2017-10-13T21:47:29.632Z,8.20
2017-10-13T21:49:57.968Z,7.70
2017-10-13T21:52:26.307Z,8.10
2017-10-13T21:54:55.387Z,8.87
2017-10-13T21:57:23.721Z,8.40
2017-10-13T21:59:52.035Z,9.20
2017-10-13T22:02:20.356Z,8.57
2017-10-13T22:04:55.097Z,9.73
2017-10-13T22:07:23.418Z,8.47
2017-10-13T22:09:51.752Z,9.10
2017-10-13T22:12:20.836Z,8.90
2017-10-13T22:14:49.944Z,9.53
2017-10-13T22:17:19.026Z,9.37
2017-10-13T22:19:47.348Z,11.23
2017-10-13T22:22:15.686Z,10.00
2017-10-13T22:24:44.055Z,10.03
2017-10-13T22:27:12.401Z,10.97
2017-10-13T22:29:40.736Z,10.40
2017-10-13T22:32:09.060Z,10.60
2017-10-13T22:34:37.382Z,10.73
2017-10-13T22:37:05.742Z,11.10
2017-10-13T22:39:34.084Z,10.73
2017-10-13T22:42:03.173Z,9.93
2017-10-13T22:44:32.256Z,9.80
2017-10-13T22:47:00.584Z,11.57
2017-10-13T22:49:28.958Z,11.67
2017-10-13T22:51:57.281Z,11.60
2017-10-13T22:54:25.604Z,10.70
2017-10-13T22:56:54.685Z,11.20
2017-10-13T22:59:23.779Z,12.60
2017-10-13T23:01:52.100Z,12.70
2017-10-13T23:04:20.433Z,12.40
2017-10-13T23:06:48.762Z,13.47
2017-10-13T23:09:17.118Z,13.30
2017-10-13T23:11:45.448Z,14.20
2017-10-13T23:14:13.749Z,13.70
2017-10-13T23:16:42.057Z,13.83
2017-10-13T23:19:10.392Z,13.20
2017-10-13T23:21:38.705Z,12.33
2017-10-13T23:24:07.041Z,13.77
2017-10-13T23:26:35.483Z,13.50
2017-10-13T23:29:03.874Z,13.57
2017-10-13T23:31:32.951Z,13.07
2017-10-13T23:34:01.268Z,13.90
2017-10-13T23:36:30.360Z,14.47
2017-10-13T23:38:59.426Z,13.43
2017-10-13T23:41:27.738Z,14.83
2017-10-13T23:43:56.828Z,14.00
2017-10-13T23:46:25.161Z,13.47
2017-10-13T23:48:53.511Z,14.37
2017-10-13T23:51:22.595Z,14.13
2017-10-13T23:53:51.710Z,15.67
2017-10-13T23:56:20.812Z,14.73
2017-10-13T23:58:49.149Z,14.40
